Time;durP1;ratioP1;P1;durP2;ratioP2;P2;SDS_P1;SDS_P2;PMS_P1;PMS_P2;Temp;Humidity;BMP_temperature;BMP_pressure;BME280_temperature;BME280_humidity;BME280_pressure;Samples;Min_cycle;Max_cycle;Signal;HPM_P1;HPM_P2
2024/01/23 00:01:15;;;;;;;22.25;4.00;;;;;;;7.09;100.00;101552.28;5083268;28;20025;-77
2024/01/23 00:03:40;;;;;;;23.35;4.10;;;;;;;6.95;100.00;101560.66;5083770;28;20024;-77
2024/01/23 00:06:05;;;;;;;22.65;4.10;;;;;;;6.93;100.00;101577.22;5085066;28;20060;-80
2024/01/23 00:08:31;;;;;;;20.40;4.22;;;;;;;6.92;100.00;101564.94;5084994;28;20032;-78
2024/01/23 00:10:56;;;;;;;23.10;4.28;;;;;;;6.92;100.00;101573.69;5082407;28;20051;-75
2024/01/23 00:13:22;;;;;;;22.50;4.22;;;;;;;6.93;100.00;101583.38;5085804;28;20119;-79
2024/01/23 00:15:47;;;;;;;22.55;4.10;;;;;;;6.97;100.00;101587.88;5082295;28;20032;-81
2024/01/23 00:18:13;;;;;;;22.35;4.13;;;;;;;6.95;100.00;101601.81;5084817;28;20034;-77
2024/01/23 00:20:38;;;;;;;23.52;3.97;;;;;;;6.98;100.00;101596.66;5083430;28;20028;-81
2024/01/23 00:23:03;;;;;;;21.38;3.85;;;;;;;7.00;100.00;101600.22;5083497;28;20020;-81
2024/01/23 00:25:29;;;;;;;21.23;4.07;;;;;;;6.98;100.00;101597.53;5083485;28;20031;-81
2024/01/23 00:27:55;;;;;;;24.23;4.50;;;;;;;7.01;100.00;101607.25;5081990;28;20032;-81
2024/01/23 00:30:20;;;;;;;22.73;4.40;;;;;;;6.96;100.00;101598.31;5085517;28;20032;-81
2024/01/23 00:32:45;;;;;;;21.83;4.28;;;;;;;6.95;100.00;101617.59;5080810;28;20515;-77
2024/01/23 00:35:11;;;;;;;24.35;4.60;;;;;;;6.92;100.00;101618.38;5084062;28;20056;-73
2024/01/23 00:37:36;;;;;;;23.40;4.25;;;;;;;7.06;100.00;101610.03;5082165;28;20024;-71
2024/01/23 00:40:03;;;;;;;21.35;3.65;;;;;;;7.08;100.00;101626.75;5081947;28;20035;-73
2024/01/23 00:42:28;;;;;;;16.70;3.35;;;;;;;7.10;100.00;101614.53;5082532;28;20032;-72
2024/01/23 00:44:54;;;;;;;20.88;4.10;;;;;;;7.10;100.00;101643.47;5084867;28;20386;-72
2024/01/23 00:47:20;;;;;;;24.45;4.38;;;;;;;7.06;100.00;101644.22;5081877;28;20368;-74
2024/01/23 00:49:45;;;;;;;23.73;4.15;;;;;;;7.08;100.00;101640.78;5084520;28;20113;-78
2024/01/23 00:52:11;;;;;;;22.10;3.85;;;;;;;7.02;100.00;101644.94;5082346;28;20016;-73
2024/01/23 00:54:36;;;;;;;21.75;4.05;;;;;;;7.04;100.00;101654.69;5083363;28;20028;-75
2024/01/23 00:57:05;;;;;;;24.23;4.82;;;;;;;7.01;100.00;101622.16;5083772;28;20119;-78
2024/01/23 00:59:30;;;;;;;22.55;4.13;;;;;;;6.94;100.00;101639.47;5081444;28;20529;-80
2024/01/23 01:01:55;;;;;;;20.92;3.60;;;;;;;6.93;100.00;101664.88;5084767;28;20027;-80
2024/01/23 01:04:21;;;;;;;18.73;3.60;;;;;;;6.90;100.00;101653.34;5081923;28;20021;-80
2024/01/23 01:06:46;;;;;;;21.25;4.10;;;;;;;6.76;100.00;101652.91;5083831;28;20024;-76
2024/01/23 01:09:11;;;;;;;23.75;4.50;;;;;;;6.66;100.00;101656.06;5082177;28;20071;-73
2024/01/23 01:11:37;;;;;;;26.50;4.30;;;;;;;6.65;100.00;101649.91;5083083;28;20094;-76
2024/01/23 01:14:02;;;;;;;21.02;3.47;;;;;;;6.67;100.00;101663.09;5083966;28;20040;-74
2024/01/23 01:16:28;;;;;;;21.42;3.72;;;;;;;6.69;100.00;101677.19;5080482;28;20025;-74
2024/01/23 01:18:54;;;;;;;23.23;3.90;;;;;;;6.44;100.00;101660.59;5083459;28;20432;-73
2024/01/23 01:21:19;;;;;;;21.80;4.00;;;;;;;6.39;100.00;101696.31;5081447;28;20017;-79
2024/01/23 01:23:44;;;;;;;22.88;4.18;;;;;;;6.41;100.00;101707.78;5084395;28;20028;-73
2024/01/23 01:26:10;;;;;;;25.13;4.38;;;;;;;6.42;100.00;101702.56;5082249;28;20040;-78
2024/01/23 01:28:36;;;;;;;23.50;4.38;;;;;;;6.26;100.00;101698.50;5083167;28;20025;-77
2024/01/23 01:31:02;;;;;;;25.75;4.22;;;;;;;6.25;100.00;101728.22;5083165;28;20032;-79
2024/01/23 01:33:27;;;;;;;18.90;3.40;;;;;;;6.41;100.00;101728.78;5081664;28;20032;-77
2024/01/23 01:35:53;;;;;;;24.50;4.53;;;;;;;6.26;100.00;101714.28;5085046;28;20039;-80
2024/01/23 01:38:19;;;;;;;24.08;4.45;;;;;;;6.17;100.00;101724.41;5077000;28;20028;-75
2024/01/23 01:40:44;;;;;;;25.17;4.53;;;;;;;6.16;100.00;101717.41;5084013;28;20572;-78
2024/01/23 01:43:23;;;;;;;22.38;3.97;;;;;;;6.26;100.00;101724.78;5082311;28;20118;-77
2024/01/23 01:46:08;;;;;;;24.05;4.78;;;;;;;6.30;100.00;101748.50;5076596;28;20494;-75
2024/01/23 01:48:34;;;;;;;24.65;4.30;;;;;;;6.21;100.00;101746.44;5078704;28;20078;-73
2024/01/23 01:50:59;;;;;;;22.27;4.07;;;;;;;6.20;100.00;101727.16;5083388;28;20031;-76
2024/01/23 01:53:25;;;;;;;21.85;3.85;;;;;;;6.25;100.00;101743.09;5081220;28;20036;-78
2024/01/23 01:55:50;;;;;;;23.65;4.57;;;;;;;6.26;100.00;101740.53;5084408;28;20144;-78
2024/01/23 01:58:17;;;;;;;24.33;4.68;;;;;;;6.19;100.00;101764.78;5081126;28;20029;-78
2024/01/23 02:00:43;;;;;;;22.38;4.40;;;;;;;6.10;100.00;101770.59;5087485;28;20372;-77
2024/01/23 02:03:10;;;;;;;22.73;4.15;;;;;;;6.18;100.00;101770.84;5086438;28;20020;-81
2024/01/23 02:05:35;;;;;;;24.88;4.32;;;;;;;6.13;100.00;101780.31;5086334;28;20032;-78
2024/01/23 02:08:01;;;;;;;24.88;4.43;;;;;;;6.19;100.00;101780.53;5087371;28;20367;-71
2024/01/23 02:10:26;;;;;;;23.35;4.05;;;;;;;6.20;100.00;101794.53;5084675;28;20052;-71
2024/01/23 02:12:51;;;;;;;22.45;4.30;;;;;;;6.10;100.00;101795.91;5088193;28;20032;-78
2024/01/23 02:15:17;;;;;;;23.52;4.22;;;;;;;6.07;100.00;101807.22;5084788;28;20025;-78
2024/01/23 02:17:42;;;;;;;25.38;4.43;;;;;;;6.03;100.00;101809.63;5087123;28;20037;-78
2024/01/23 02:20:08;;;;;;;23.67;4.57;;;;;;;5.99;100.00;101808.66;5085676;28;20028;-76
2024/01/23 02:22:34;;;;;;;22.90;4.15;;;;;;;6.01;100.00;101800.81;5085789;28;20031;-77
2024/01/23 02:24:59;;;;;;;24.52;4.80;;;;;;;5.93;100.00;101803.13;5085676;28;20039;-79
2024/01/23 02:27:24;;;;;;;22.90;4.65;;;;;;;5.88;100.00;101823.97;5084257;28;20032;-75
2024/01/23 02:29:50;;;;;;;23.80;4.70;;;;;;;5.83;100.00;101825.50;5087561;28;20115;-74
2024/01/23 02:32:15;;;;;;;23.13;4.15;;;;;;;5.85;100.00;101818.56;5084635;28;20025;-78
2024/01/23 02:34:40;;;;;;;23.67;4.13;;;;;;;5.76;100.00;101836.59;5085243;28;20376;-75
2024/01/23 02:37:06;;;;;;;24.95;4.90;;;;;;;5.75;100.00;101826.91;5085831;28;20388;-81
2024/01/23 02:39:31;;;;;;;21.73;4.10;;;;;;;5.81;100.00;101808.81;5084878;28;20455;-81
2024/01/23 02:41:56;;;;;;;22.77;4.38;;;;;;;5.83;100.00;101848.22;5087211;28;20455;-72
2024/01/23 02:44:22;;;;;;;24.48;4.75;;;;;;;5.74;100.00;101844.38;5083651;28;20038;-72
2024/01/23 02:46:47;;;;;;;23.10;4.10;;;;;;;5.81;100.00;101866.53;5085647;28;20107;-71
2024/01/23 02:49:13;;;;;;;20.92;3.33;;;;;;;5.84;100.00;101861.41;5084655;28;20039;-71
2024/01/23 02:51:38;;;;;;;23.92;4.85;;;;;;;5.73;100.00;101871.44;5085510;28;20032;-71
2024/01/23 02:54:03;;;;;;;22.17;4.10;;;;;;;5.75;100.00;101872.44;5086014;28;20035;-77
2024/01/23 02:56:29;;;;;;;24.58;4.60;;;;;;;5.68;100.00;101864.22;5083103;28;20463;-77
2024/01/23 02:58:54;;;;;;;24.50;4.55;;;;;;;5.68;100.00;101874.72;5087041;28;20032;-78
2024/01/23 03:01:19;;;;;;;24.35;4.60;;;;;;;5.65;100.00;101891.25;5079589;28;20518;-77
2024/01/23 03:03:45;;;;;;;23.45;4.28;;;;;;;5.71;100.00;101886.25;5086300;28;20028;-77
2024/01/23 03:06:10;;;;;;;24.42;4.70;;;;;;;5.68;100.00;101900.97;5066674;28;20028;-80
2024/01/23 03:08:35;;;;;;;23.33;4.45;;;;;;;5.67;100.00;101901.81;5084953;28;20111;-79
2024/01/23 03:11:01;;;;;;;24.83;4.68;;;;;;;5.76;100.00;101902.19;5084468;28;20044;-77
2024/01/23 03:13:26;;;;;;;25.00;4.30;;;;;;;5.81;100.00;101905.91;5083580;28;20029;-80
2024/01/23 03:15:53;;;;;;;25.67;4.40;;;;;;;5.85;100.00;101909.53;5086891;28;20035;-78
2024/01/23 03:18:18;;;;;;;24.90;4.53;;;;;;;5.87;100.00;101924.50;5083289;28;20036;-79
2024/01/23 03:20:43;;;;;;;26.83;4.97;;;;;;;5.86;100.00;101922.72;5067660;28;20388;-78
2024/01/23 03:23:10;;;;;;;24.38;4.65;;;;;;;5.83;100.00;101932.19;5083577;28;20162;-75
2024/01/23 03:25:35;;;;;;;26.45;5.05;;;;;;;5.72;100.00;101944.84;5084513;28;20459;-75
2024/01/23 03:28:01;;;;;;;25.55;4.75;;;;;;;5.69;100.00;101940.38;5085718;28;20118;-71
2024/01/23 03:30:30;;;;;;;26.75;4.68;;;;;;;5.70;100.00;101949.16;5083941;28;20090;-71
2024/01/23 03:32:56;;;;;;;24.23;4.72;;;;;;;5.66;100.00;101942.88;5086260;28;20106;-71
2024/01/23 03:35:22;;;;;;;26.55;4.65;;;;;;;5.57;100.00;101934.63;5083471;28;20121;-77
2024/01/23 03:37:47;;;;;;;25.00;4.53;;;;;;;5.51;100.00;101932.63;5086312;28;20389;-81
2024/01/23 03:40:13;;;;;;;25.40;4.78;;;;;;;5.49;100.00;101936.94;5084011;28;20046;-79
2024/01/23 03:42:39;;;;;;;25.85;4.90;;;;;;;5.44;100.00;101941.06;5087269;28;20119;-74
2024/01/23 03:45:04;;;;;;;25.42;4.60;;;;;;;5.34;100.00;101934.53;5084451;28;20048;-75
2024/01/23 03:47:30;;;;;;;22.52;4.50;;;;;;;5.24;100.00;101943.75;5085953;28;20028;-81
2024/01/23 03:49:55;;;;;;;23.67;4.90;;;;;;;5.23;100.00;101949.81;5083074;28;20052;-77
2024/01/23 03:52:22;;;;;;;26.60;4.95;;;;;;;5.26;100.00;101956.00;5086296;28;20032;-75
2024/01/23 03:54:48;;;;;;;21.73;4.50;;;;;;;5.22;100.00;101987.34;5083041;28;20033;-73
2024/01/23 03:57:13;;;;;;;24.88;4.82;;;;;;;5.29;100.00;101985.00;5085396;28;20365;-78
2024/01/23 03:59:42;;;;;;;23.95;4.55;;;;;;;5.18;100.00;101995.88;5084026;28;20533;-74
2024/01/23 04:02:08;;;;;;;27.23;4.90;;;;;;;5.13;100.00;101999.16;5084325;28;20498;-76
2024/01/23 04:04:34;;;;;;;27.08;5.10;;;;;;;5.18;100.00;102005.50;5084558;28;20074;-81
2024/01/23 04:06:59;;;;;;;25.45;4.60;;;;;;;5.14;100.00;101999.22;5082822;28;20416;-80
2024/01/23 04:09:25;;;;;;;26.80;4.90;;;;;;;5.07;100.00;101990.16;5085487;28;20390;-79
2024/01/23 04:11:50;;;;;;;25.92;5.15;;;;;;;5.01;100.00;101995.16;5078117;28;20048;-75
2024/01/23 04:14:16;;;;;;;25.90;4.97;;;;;;;5.00;100.00;102001.22;5085176;28;20032;-71
2024/01/23 04:16:41;;;;;;;25.52;4.72;;;;;;;5.08;100.00;101993.69;5082000;28;20024;-72
2024/01/23 04:19:07;;;;;;;26.35;4.90;;;;;;;4.99;100.00;101998.50;5082685;28;20025;-82
2024/01/23 04:21:33;;;;;;;25.25;4.80;;;;;;;5.01;100.00;101991.59;5084015;28;20486;-81
2024/01/23 04:23:58;;;;;;;27.83;4.95;;;;;;;5.02;100.00;101996.03;5082324;28;20095;-78
2024/01/23 04:26:24;;;;;;;25.55;4.60;;;;;;;5.00;100.00;102002.94;5085762;28;20035;-78
2024/01/23 04:28:49;;;;;;;25.70;5.00;;;;;;;4.95;100.00;102010.59;5080811;28;20029;-82
2024/01/23 04:31:15;;;;;;;25.02;4.75;;;;;;;4.97;100.00;102008.03;5085791;28;20025;-82
2024/01/23 04:33:41;;;;;;;25.27;4.30;;;;;;;4.94;100.00;102018.38;5083778;28;20024;-83
2024/01/23 04:36:06;;;;;;;25.67;4.90;;;;;;;4.96;100.00;102035.06;5082395;28;20043;-83
2024/01/23 04:38:31;;;;;;;26.73;4.93;;;;;;;4.88;100.00;102045.22;5083251;28;20032;-83
2024/01/23 04:40:57;;;;;;;24.63;5.05;;;;;;;4.88;100.00;102051.34;5085994;28;20028;-83
2024/01/23 04:43:22;;;;;;;24.45;4.22;;;;;;;4.82;100.00;102058.00;5081937;28;20068;-74
2024/01/23 04:45:47;;;;;;;27.63;5.15;;;;;;;4.77;100.00;102072.63;5083557;28;20020;-77
2024/01/23 04:48:13;;;;;;;26.05;5.18;;;;;;;4.83;100.00;102081.66;5082585;28;20035;-75
2024/01/23 04:50:38;;;;;;;26.60;5.18;;;;;;;4.77;100.00;102078.75;5083523;28;20438;-76
2024/01/23 04:53:03;;;;;;;26.17;5.00;;;;;;;4.76;100.00;102090.06;5084270;28;20107;-73
2024/01/23 04:55:29;;;;;;;24.90;4.93;;;;;;;4.70;100.00;102084.50;5082101;28;20020;-72
2024/01/23 04:57:54;;;;;;;26.63;4.85;;;;;;;4.71;100.00;102091.56;5085132;28;20463;-72
2024/01/23 05:00:20;;;;;;;23.55;4.80;;;;;;;4.70;100.00;102088.06;5080492;28;20021;-81
2024/01/23 05:02:45;;;;;;;28.95;5.60;;;;;;;4.70;100.00;102092.38;5084130;28;20040;-79
2024/01/23 05:05:10;;;;;;;27.85;5.13;;;;;;;4.72;100.00;102095.97;5083075;28;20478;-80
2024/01/23 05:07:36;;;;;;;28.17;4.95;;;;;;;4.71;100.00;102104.66;5082887;28;20028;-79
2024/01/23 05:10:04;;;;;;;24.70;5.07;;;;;;;4.68;100.00;102112.38;5084339;28;20097;-74
2024/01/23 05:12:29;;;;;;;25.27;5.00;;;;;;;4.65;100.00;102134.06;5080602;28;20503;-79
2024/01/23 05:14:55;;;;;;;25.27;5.45;;;;;;;4.57;100.00;102131.91;5085074;28;20059;-80
2024/01/23 05:17:20;;;;;;;24.33;4.82;;;;;;;4.50;100.00;102134.22;5081456;28;20388;-76
2024/01/23 05:19:45;;;;;;;25.00;4.72;;;;;;;4.47;100.00;102133.16;5081841;28;20455;-82
2024/01/23 05:22:11;;;;;;;26.27;5.15;;;;;;;4.50;100.00;102142.06;5083619;28;20039;-76
2024/01/23 05:24:36;;;;;;;27.40;5.35;;;;;;;4.47;100.00;102138.38;5083302;28;20170;-77
2024/01/23 05:27:02;;;;;;;25.83;5.00;;;;;;;4.45;100.00;102150.53;5082289;28;20031;-81
2024/01/23 05:29:27;;;;;;;24.48;5.07;;;;;;;4.42;100.00;102147.75;5084090;28;20382;-72
2024/01/23 05:31:52;;;;;;;26.20;4.95;;;;;;;4.39;100.00;102155.44;5080747;28;20040;-72
2024/01/23 05:34:18;;;;;;;23.20;4.78;;;;;;;4.34;100.00;102153.50;5083414;28;20028;-72
2024/01/23 05:36:43;;;;;;;25.40;5.03;;;;;;;4.34;100.00;102158.72;5081956;28;20463;-72
2024/01/23 05:39:08;;;;;;;27.63;5.20;;;;;;;4.33;100.00;102166.50;5082410;28;20471;-72
2024/01/23 05:41:34;;;;;;;27.67;5.50;;;;;;;4.30;100.00;102169.88;5083375;28;20071;-75
2024/01/23 05:43:59;;;;;;;29.35;5.53;;;;;;;4.26;100.00;102173.13;5081172;28;20028;-78
2024/01/23 05:46:25;;;;;;;25.38;5.35;;;;;;;4.28;100.00;102186.31;5084250;28;20032;-79
2024/01/23 05:48:50;;;;;;;26.05;5.10;;;;;;;4.36;100.00;102193.72;5081000;28;20443;-79
2024/01/23 05:51:15;;;;;;;24.92;4.65;;;;;;;4.29;100.00;102195.97;5083407;28;20038;-83
2024/01/23 05:53:41;;;;;;;25.13;4.80;;;;;;;4.31;100.00;102202.16;5082262;28;20028;-83
2024/01/23 05:56:06;;;;;;;26.02;5.07;;;;;;;4.38;100.00;102209.53;5081929;28;20109;-82
2024/01/23 05:58:31;;;;;;;25.10;4.95;;;;;;;4.37;100.00;102205.13;5083309;28;20379;-82
2024/01/23 06:00:57;;;;;;;25.10;4.68;;;;;;;4.38;100.00;102213.88;5080892;28;20391;-78
2024/01/23 06:03:22;;;;;;;26.48;5.00;;;;;;;4.44;100.00;102217.72;5082838;28;20123;-74
2024/01/23 06:05:48;;;;;;;24.70;4.82;;;;;;;4.52;100.00;102219.00;5079778;28;20460;-76
2024/01/23 06:08:13;;;;;;;27.40;5.22;;;;;;;4.53;100.00;102225.16;5083328;28;20111;-75
2024/01/23 06:10:38;;;;;;;28.20;5.50;;;;;;;4.42;100.00;102231.53;5082565;28;20051;-74
2024/01/23 06:13:04;;;;;;;28.15;5.13;;;;;;;4.35;100.00;102226.00;5081736;28;20075;-72
2024/01/23 06:15:31;;;;;;;24.65;5.10;;;;;;;4.41;100.00;102225.38;5082984;28;20068;-72
2024/01/23 06:17:57;;;;;;;31.63;5.40;;;;;;;4.44;100.00;102227.28;5080690;28;20032;-73
2024/01/23 06:20:22;;;;;;;25.95;5.70;;;;;;;4.49;100.00;102224.06;5084516;28;20038;-72
2024/01/23 06:22:48;;;;;;;26.30;5.22;;;;;;;4.48;100.00;102227.50;5084467;28;20036;-78
2024/01/23 06:25:16;;;;;;;26.48;5.38;;;;;;;4.51;100.00;102229.38;5082006;28;20524;-77
2024/01/23 06:27:44;;;;;;;26.08;4.90;;;;;;;4.57;100.00;102247.13;5082926;28;20135;-83
2024/01/23 06:30:11;;;;;;;23.25;4.28;;;;;;;4.53;100.00;102243.47;5082784;28;20029;-81
2024/01/23 06:32:40;;;;;;;24.10;4.72;;;;;;;4.54;100.00;102248.78;5080405;28;20032;-74
2024/01/23 06:35:07;;;;;;;27.25;4.95;;;;;;;4.54;100.00;102254.03;5080964;28;20073;-80
2024/01/23 06:37:33;;;;;;;26.80;5.45;;;;;;;4.42;100.00;102266.47;5081519;28;20029;-76
2024/01/23 06:39:59;;;;;;;27.75;5.18;;;;;;;4.36;100.00;102264.44;5084090;28;20034;-80
2024/01/23 06:42:24;;;;;;;25.38;5.18;;;;;;;4.39;100.00;102270.66;5080722;28;20108;-76
2024/01/23 06:44:49;;;;;;;25.30;4.93;;;;;;;4.39;100.00;102271.56;5085988;28;20031;-75
2024/01/23 06:47:17;;;;;;;27.80;5.05;;;;;;;4.33;100.00;102264.28;5085011;28;20028;-78
2024/01/23 06:49:42;;;;;;;25.27;5.03;;;;;;;4.33;100.00;102263.38;5086479;28;20157;-74
2024/01/23 06:52:08;;;;;;;26.20;5.10;;;;;;;4.29;100.00;102266.66;5086164;28;20063;-73
2024/01/23 06:54:33;;;;;;;26.63;5.13;;;;;;;4.33;100.00;102271.25;5084922;28;20490;-83
2024/01/23 06:56:59;;;;;;;29.05;5.20;;;;;;;4.42;100.00;102289.16;5088210;28;20112;-83
2024/01/23 06:59:25;;;;;;;25.98;5.65;;;;;;;4.48;100.00;102282.50;5087167;28;20035;-83
2024/01/23 07:01:50;;;;;;;30.67;5.53;;;;;;;4.45;100.00;102281.44;5085182;28;20112;-80
2024/01/23 07:04:15;;;;;;;25.27;5.55;;;;;;;4.39;100.00;102281.13;5086777;28;20482;-73
2024/01/23 07:06:41;;;;;;;26.55;5.00;;;;;;;4.40;100.00;102290.78;5086099;28;20454;-82
2024/01/23 07:09:06;;;;;;;23.90;5.10;;;;;;;4.37;100.00;102286.31;5084812;28;20036;-74
2024/01/23 07:11:31;;;;;;;25.08;5.28;;;;;;;4.38;100.00;102274.97;5087099;28;20158;-73
2024/01/23 07:13:57;;;;;;;27.35;5.00;;;;;;;4.37;100.00;102281.06;5086669;28;20441;-76
2024/01/23 07:16:22;;;;;;;26.30;5.10;;;;;;;4.29;100.00;102282.38;5079003;28;20059;-77
2024/01/23 07:18:48;;;;;;;27.00;5.43;;;;;;;4.26;100.00;102290.94;5086205;28;20056;-76
2024/01/23 07:21:13;;;;;;;24.92;4.85;;;;;;;4.30;100.00;102292.03;5084383;28;20035;-77
2024/01/23 07:23:39;;;;;;;26.10;5.30;;;;;;;4.28;100.00;102301.50;5084681;28;20025;-72
2024/01/23 07:26:05;;;;;;;24.15;4.90;;;;;;;4.16;100.00;102297.41;5084653;28;20078;-75
2024/01/23 07:28:30;;;;;;;25.15;4.97;;;;;;;4.14;100.00;102309.53;5083425;28;20036;-72
2024/01/23 07:30:55;;;;;;;26.35;4.90;;;;;;;4.13;100.00;102318.19;5086379;28;20043;-82
2024/01/23 07:33:21;;;;;;;25.92;5.20;;;;;;;4.13;100.00;102318.19;5083493;28;20032;-76
2024/01/23 07:35:46;;;;;;;27.25;5.13;;;;;;;4.09;100.00;102317.94;5087189;28;20499;-73
2024/01/23 07:38:12;;;;;;;26.58;4.97;;;;;;;4.12;100.00;102321.63;5085439;28;20134;-73
2024/01/23 07:40:38;;;;;;;27.77;5.00;;;;;;;4.13;100.00;102318.19;5086961;28;20036;-76
2024/01/23 07:43:04;;;;;;;26.20;5.13;;;;;;;4.10;100.00;102328.50;5085532;28;20051;-76
2024/01/23 07:45:29;;;;;;;24.80;4.90;;;;;;;4.15;100.00;102334.88;5087851;28;20024;-72
2024/01/23 07:47:55;;;;;;;26.98;5.22;;;;;;;4.25;100.00;102333.69;5086712;28;20479;-72
2024/01/23 07:50:21;;;;;;;25.48;5.03;;;;;;;4.24;100.00;102333.56;5085900;28;20028;-74
2024/01/23 07:52:46;;;;;;;26.50;5.43;;;;;;;4.18;100.00;102321.97;5084107;28;20024;-74
2024/01/23 07:55:11;;;;;;;27.02;5.15;;;;;;;4.07;100.00;102330.06;5084351;28;20378;-73
2024/01/23 07:57:37;;;;;;;24.75;5.07;;;;;;;4.00;100.00;102341.88;5084959;28;20024;-82
2024/01/23 08:00:03;;;;;;;24.60;5.35;;;;;;;3.97;100.00;102344.34;5084145;28;20123;-81
2024/01/23 08:02:29;;;;;;;25.63;4.78;;;;;;;3.94;100.00;102347.69;5084823;28;20020;-79
2024/01/23 08:04:54;;;;;;;26.38;5.28;;;;;;;3.95;100.00;102346.88;5082808;28;20025;-79
2024/01/23 08:07:20;;;;;;;26.70;5.30;;;;;;;3.94;100.00;102346.78;5085904;28;20063;-82
2024/01/23 08:09:45;;;;;;;24.10;5.03;;;;;;;3.87;100.00;102366.47;5082414;28;20024;-84
2024/01/23 08:12:10;;;;;;;25.88;5.15;;;;;;;3.90;100.00;102365.75;5084196;28;20052;-80
2024/01/23 08:14:36;;;;;;;27.25;5.20;;;;;;;3.91;100.00;102375.41;5084958;28;20021;-79
2024/01/23 08:17:03;;;;;;;24.98;5.25;;;;;;;3.86;100.00;102379.47;5082160;28;20121;-77
2024/01/23 08:19:28;;;;;;;25.17;5.40;;;;;;;3.88;100.00;102383.09;5086168;28;20063;-78
2024/01/23 08:21:53;;;;;;;25.35;5.10;;;;;;;3.92;100.00;102383.34;5081267;28;20024;-75
2024/01/23 08:24:19;;;;;;;26.35;5.57;;;;;;;4.02;100.00;102392.63;5085226;28;20032;-79
2024/01/23 08:26:44;;;;;;;26.60;6.47;;;;;;;4.05;100.00;102400.63;5083897;28;20039;-74
2024/01/23 08:29:10;;;;;;;25.30;5.28;;;;;;;4.16;100.00;102402.09;5083814;28;20040;-73
2024/01/23 08:31:36;;;;;;;26.17;5.13;;;;;;;4.20;100.00;102395.34;5084837;28;20028;-75
2024/01/23 08:34:01;;;;;;;27.58;5.82;;;;;;;4.29;100.00;102400.19;5082830;28;20032;-81
2024/01/23 08:36:27;;;;;;;25.45;5.07;;;;;;;4.42;100.00;102418.34;5084247;28;20110;-73
2024/01/23 08:38:52;;;;;;;26.80;5.10;;;;;;;4.52;100.00;102428.50;5082195;28;20029;-78
2024/01/23 08:41:18;;;;;;;26.35;5.18;;;;;;;4.60;100.00;102434.19;5085240;28;20032;-81
2024/01/23 08:43:44;;;;;;;27.42;5.13;;;;;;;4.64;100.00;102428.28;5083129;28;20034;-75
2024/01/23 08:46:09;;;;;;;25.40;5.50;;;;;;;4.75;100.00;102430.56;5083574;28;20038;-77
2024/01/23 08:48:35;;;;;;;25.52;5.18;;;;;;;4.87;100.00;102437.38;5083546;28;20036;-74
2024/01/23 08:51:01;;;;;;;22.83;4.88;;;;;;;4.98;100.00;102435.34;5082455;28;20024;-77
2024/01/23 08:53:26;;;;;;;26.15;5.38;;;;;;;5.12;100.00;102429.91;5085287;28;20031;-81
2024/01/23 08:55:51;;;;;;;24.85;5.20;;;;;;;5.20;100.00;102421.63;5082049;28;20112;-73
2024/01/23 08:58:17;;;;;;;24.92;5.32;;;;;;;5.28;100.00;102439.47;5084412;28;20504;-77
2024/01/23 09:00:43;;;;;;;28.23;5.50;;;;;;;5.36;100.00;102432.91;5083125;28;20099;-74
2024/01/23 09:03:09;;;;;;;24.52;4.72;;;;;;;5.49;100.00;102443.19;5083326;28;20039;-77
2024/01/23 09:05:34;;;;;;;24.33;5.10;;;;;;;5.56;100.00;102437.44;5083305;28;20133;-82
2024/01/23 09:07:59;;;;;;;23.30;4.78;;;;;;;5.65;100.00;102438.69;5080562;28;20036;-80
2024/01/23 09:10:25;;;;;;;26.10;5.15;;;;;;;5.77;100.00;102426.19;5084628;28;20079;-80
2024/01/23 09:12:50;;;;;;;26.48;5.30;;;;;;;5.87;100.00;102438.94;5081580;28;20048;-75
2024/01/23 09:15:15;;;;;;;25.05;5.10;;;;;;;6.01;100.00;102430.88;5083742;28;20086;-82
2024/01/23 09:17:41;;;;;;;26.40;5.60;;;;;;;6.12;100.00;102440.16;5083010;28;20038;-80
2024/01/23 09:20:07;;;;;;;22.95;4.78;;;;;;;6.22;100.00;102433.63;5082129;28;20574;-80
2024/01/23 09:22:32;;;;;;;23.83;4.57;;;;;;;6.36;100.00;102443.03;5084162;28;20032;-82
2024/01/23 09:25:03;;;;;;;23.70;4.65;;;;;;;6.42;100.00;102442.44;5080917;28;20081;-76
2024/01/23 09:27:28;;;;;;;23.08;4.90;;;;;;;6.58;100.00;102431.81;5077335;28;20033;-73
2024/01/23 09:29:54;;;;;;;25.17;4.93;;;;;;;6.73;100.00;102423.72;5077382;28;20040;-81
2024/01/23 09:32:19;;;;;;;25.52;4.93;;;;;;;6.90;100.00;102428.84;5083905;28;20028;-74
2024/01/23 09:34:47;;;;;;;23.60;4.78;;;;;;;7.07;100.00;102427.84;5082091;28;20027;-73
2024/01/23 09:37:13;;;;;;;24.02;4.95;;;;;;;7.12;100.00;102426.34;5082775;28;20040;-74
2024/01/23 09:39:38;;;;;;;24.90;4.90;;;;;;;7.28;100.00;102434.88;5083023;28;20060;-80
2024/01/23 09:42:04;;;;;;;24.83;4.85;;;;;;;7.33;100.00;102428.97;5081475;28;20063;-81
2024/01/23 09:44:30;;;;;;;24.88;5.05;;;;;;;7.41;100.00;102428.41;5084380;28;20031;-76
2024/01/23 09:46:58;;;;;;;24.42;5.00;;;;;;;7.47;100.00;102423.41;5080782;28;20025;-72
2024/01/23 09:49:24;;;;;;;24.15;4.95;;;;;;;7.75;100.00;102432.47;5083957;28;20067;-72
2024/01/23 09:51:51;;;;;;;25.45;4.90;;;;;;;7.92;100.00;102443.69;5081532;28;20090;-72
2024/01/23 09:54:17;;;;;;;25.75;5.22;;;;;;;7.84;100.00;102435.47;5083122;28;20024;-72
2024/01/23 09:56:43;;;;;;;23.98;4.97;;;;;;;7.99;100.00;102429.94;5082214;28;20038;-73
2024/01/23 09:59:09;;;;;;;26.50;5.30;;;;;;;8.17;100.00;102441.22;5082391;28;20387;-77
2024/01/23 10:01:35;;;;;;;25.60;4.88;;;;;;;8.15;100.00;102440.22;5083192;28;20035;-74
2024/01/23 10:04:04;;;;;;;26.63;5.00;;;;;;;8.19;100.00;102449.16;5081027;28;20032;-79
2024/01/23 10:06:30;;;;;;;23.90;4.65;;;;;;;8.37;100.00;102436.72;5084271;28;20036;-73
2024/01/23 10:08:56;;;;;;;23.50;4.53;;;;;;;8.60;100.00;102442.00;5080506;28;20040;-73
2024/01/23 10:11:21;;;;;;;26.42;5.00;;;;;;;8.91;100.00;102443.13;5083340;28;20048;-79
2024/01/23 10:13:47;;;;;;;24.73;4.70;;;;;;;8.89;100.00;102448.34;5080418;28;20044;-79
2024/01/23 10:16:15;;;;;;;24.88;4.75;;;;;;;8.97;100.00;102451.28;5082252;28;20526;-77
2024/01/23 10:18:40;;;;;;;25.15;5.38;;;;;;;9.09;100.00;102437.63;5082840;28;20031;-73
2024/01/23 10:21:05;;;;;;;24.15;4.97;;;;;;;8.96;100.00;102443.31;5085361;28;20475;-74
2024/01/23 10:23:33;;;;;;;24.75;5.10;;;;;;;9.10;100.00;102452.63;5087622;28;20071;-74
2024/01/23 10:25:59;;;;;;;23.70;5.32;;;;;;;9.31;100.00;102443.69;5084240;28;20035;-74
2024/01/23 10:28:24;;;;;;;23.45;4.68;;;;;;;9.62;100.00;102436.81;5088053;28;20028;-71
2024/01/23 10:30:50;;;;;;;23.02;5.00;;;;;;;9.84;100.00;102434.00;5084711;28;20036;-71
2024/01/23 10:33:16;;;;;;;24.20;4.70;;;;;;;9.71;100.00;102434.47;5086554;28;20028;-74
2024/01/23 10:35:42;;;;;;;22.23;4.70;;;;;;;9.51;100.00;102449.63;5085860;28;20089;-71
2024/01/23 10:38:10;;;;;;;23.33;4.90;;;;;;;9.08;100.00;102442.00;5085380;28;20108;-76
2024/01/23 10:40:37;;;;;;;24.95;4.93;;;;;;;9.11;100.00;102450.88;5087058;28;20024;-72
2024/01/23 10:43:06;;;;;;;24.30;5.10;;;;;;;9.42;100.00;102442.28;5084554;28;20044;-71
2024/01/23 10:45:31;;;;;;;23.50;4.97;;;;;;;9.58;100.00;102449.00;5087629;28;20464;-82
2024/01/23 10:47:59;;;;;;;26.13;4.82;;;;;;;9.50;100.00;102438.19;5084588;28;20036;-80
2024/01/23 10:50:25;;;;;;;24.98;5.47;;;;;;;9.18;100.00;102434.44;5078670;28;20031;-84
2024/01/23 10:52:50;;;;;;;27.88;5.43;;;;;;;9.12;100.00;102431.59;5084597;28;20024;-82
2024/01/23 10:55:17;;;;;;;22.88;4.88;;;;;;;9.15;100.00;102437.84;5086290;28;20028;-81
2024/01/23 10:57:47;;;;;;;27.50;5.50;;;;;;;9.18;100.00;102426.53;5085991;28;20093;-83
2024/01/23 11:00:16;;;;;;;22.27;4.90;;;;;;;9.40;100.00;102423.75;5084519;28;20044;-78
2024/01/23 11:03:04;;;;;;;24.02;5.13;;;;;;;10.04;100.00;102428.50;5085948;28;20459;-83
2024/01/23 11:05:44;;;;;;;24.10;5.00;;;;;;;10.12;100.00;102422.59;5082373;28;20021;-83
2024/01/23 11:08:22;;;;;;;24.90;4.97;;;;;;;9.49;100.00;102428.47;5083021;28;20034;-83
2024/01/23 11:10:53;;;;;;;25.35;5.00;;;;;;;8.98;100.00;102410.84;5085148;28;20055;-83